createdAt,value
2018-12-17T00:01:59.603Z,-0.44
2018-12-17T00:04:30.415Z,-0.42
2018-12-17T00:07:00.411Z,-0.41
2018-12-17T00:09:30.129Z,-0.41
2018-12-17T00:12:00.305Z,-0.38
2018-12-17T00:14:30.494Z,-0.36
2018-12-17T00:17:00.551Z,-0.40
2018-12-17T00:19:30.529Z,-0.38
2018-12-17T00:22:00.319Z,-0.34
2018-12-17T00:24:30.335Z,-0.33
2018-12-17T00:27:00.150Z,-0.27
2018-12-17T00:29:30.248Z,-0.26
2018-12-17T00:32:00.583Z,-0.22
2018-12-17T00:34:30.376Z,-0.18
2018-12-17T00:37:00.243Z,-0.18
2018-12-17T00:39:30.868Z,-0.17
2018-12-17T00:42:01.863Z,-0.17
2018-12-17T00:44:31.911Z,-0.10
2018-12-17T00:47:02.217Z,-0.13
2018-12-17T00:49:32.112Z,-0.11
2018-12-17T00:52:02.432Z,-0.13
2018-12-17T00:54:32.319Z,-0.05
2018-12-17T00:57:02.579Z,-0.81
2018-12-17T00:59:32.764Z,-0.04
2018-12-17T01:02:02.644Z,-0.04
2018-12-17T01:04:32.589Z,0.01
2018-12-17T01:07:02.411Z,0.03
2018-12-17T01:09:32.350Z,0.00
2018-12-17T01:12:02.447Z,0.01
2018-12-17T01:14:32.507Z,-0.02
2018-12-17T01:17:02.317Z,0.00
2018-12-17T01:19:32.414Z,-0.02
2018-12-17T01:22:02.568Z,-0.05
2018-12-17T01:24:32.266Z,0.05
2018-12-17T01:27:02.181Z,-0.08
2018-12-17T01:29:32.355Z,0.05
2018-12-17T01:32:05.920Z,0.10
2018-12-17T01:34:36.155Z,0.16
2018-12-17T01:37:06.493Z,0.11
2018-12-17T01:39:37.599Z,0.13
2018-12-17T01:42:07.364Z,0.13
2018-12-17T01:44:37.322Z,0.13
2018-12-17T01:47:07.505Z,0.12
2018-12-17T01:49:37.668Z,0.02
2018-12-17T01:52:07.469Z,0.10
2018-12-17T01:54:37.229Z,0.09
2018-12-17T01:57:07.513Z,0.04
2018-12-17T01:59:37.640Z,0.10
2018-12-17T02:02:07.508Z,-0.01
2018-12-17T02:04:37.573Z,-0.03
2018-12-17T02:07:07.343Z,0.01
2018-12-17T02:09:37.255Z,0.01
2018-12-17T02:12:08.691Z,0.02
2018-12-17T02:14:38.639Z,0.02
2018-12-17T02:17:08.586Z,0.00
2018-12-17T02:19:38.474Z,-0.19
2018-12-17T02:22:08.310Z,-0.02
2018-12-17T02:24:38.255Z,0.00
2018-12-17T02:27:08.324Z,-0.07
2018-12-17T02:29:39.611Z,-0.02
2018-12-17T02:32:09.527Z,-0.02
2018-12-17T02:34:39.348Z,0.00
2018-12-17T02:37:09.123Z,-0.01
2018-12-17T02:39:39.293Z,-0.02
2018-12-17T02:42:09.180Z,-0.06
2018-12-17T02:44:39.288Z,-0.08
2018-12-17T02:49:50.480Z,-0.05
2018-12-17T02:52:20.377Z,0.01
2018-12-17T02:54:50.297Z,-0.02
2018-12-17T02:57:20.176Z,0.02
2018-12-17T02:59:50.449Z,0.01
2018-12-17T03:02:20.705Z,0.01
2018-12-17T03:04:50.794Z,-0.01
2018-12-17T03:07:20.984Z,0.05
2018-12-17T03:09:51.180Z,0.06
2018-12-17T03:12:21.254Z,0.07
2018-12-17T03:14:51.748Z,0.10
2018-12-17T03:17:21.778Z,0.13
2018-12-17T03:19:59.262Z,0.10
2018-12-17T03:22:29.512Z,0.07
2018-12-17T03:24:59.492Z,0.07
2018-12-17T03:27:29.224Z,0.11
2018-12-17T03:29:59.091Z,0.11
2018-12-17T03:32:29.273Z,0.14
2018-12-17T03:34:59.196Z,0.16
2018-12-17T03:37:29.513Z,0.17
2018-12-17T03:39:59.300Z,0.18
2018-12-17T03:42:29.582Z,0.20
2018-12-17T03:47:41.993Z,0.22
2018-12-17T03:50:12.244Z,0.25
2018-12-17T03:52:42.709Z,0.24
2018-12-17T03:55:12.709Z,0.26
2018-12-17T03:57:42.665Z,0.26
2018-12-17T04:00:12.481Z,0.26
2018-12-17T04:02:42.478Z,0.26
2018-12-17T04:05:12.682Z,0.29
2018-12-17T04:07:42.569Z,0.28
2018-12-17T04:10:13.623Z,0.24
2018-12-17T04:12:43.873Z,0.22
2018-12-17T04:15:14.133Z,0.25
2018-12-17T04:17:44.194Z,0.27
2018-12-17T04:20:14.381Z,0.24
2018-12-17T04:22:44.373Z,0.24
2018-12-17T04:25:14.565Z,0.23
2018-12-17T04:27:44.337Z,0.24
2018-12-17T04:30:14.158Z,0.27
2018-12-17T04:32:44.391Z,0.31
2018-12-17T04:35:14.418Z,0.31
2018-12-17T04:37:44.578Z,0.28
2018-12-17T04:40:14.432Z,0.34
2018-12-17T04:42:44.864Z,0.26
2018-12-17T04:45:15.084Z,0.23
2018-12-17T04:47:45.151Z,0.21
2018-12-17T04:50:15.759Z,0.21
2018-12-17T04:52:45.545Z,0.21
2018-12-17T04:55:15.473Z,0.21
2018-12-17T04:57:45.645Z,0.23
2018-12-17T05:00:15.798Z,0.21
2018-12-17T05:02:45.862Z,0.23
2018-12-17T05:05:15.660Z,0.25
2018-12-17T05:07:45.476Z,0.26
2018-12-17T05:10:15.489Z,0.27
2018-12-17T05:12:45.644Z,0.28
2018-12-17T05:15:15.684Z,0.27
2018-12-17T05:17:45.489Z,0.27
2018-12-17T05:20:15.368Z,0.28
2018-12-17T05:22:45.172Z,0.29
2018-12-17T05:25:15.423Z,0.30
2018-12-17T05:27:45.638Z,0.32
2018-12-17T05:30:15.914Z,0.34
2018-12-17T05:32:46.115Z,0.35
2018-12-17T05:35:16.628Z,0.37
2018-12-17T05:37:46.335Z,0.38
2018-12-17T05:40:16.677Z,0.37
2018-12-17T05:42:46.548Z,0.39
2018-12-17T05:45:16.372Z,0.42
2018-12-17T05:47:46.730Z,0.42
2018-12-17T05:50:16.657Z,0.44
2018-12-17T05:52:46.577Z,0.43
2018-12-17T05:55:16.620Z,0.43
2018-12-17T05:57:46.623Z,0.44
2018-12-17T06:00:16.514Z,0.45
2018-12-17T06:02:46.458Z,0.46
2018-12-17T06:05:17.650Z,0.47
2018-12-17T06:07:47.435Z,0.48
2018-12-17T06:10:17.587Z,0.48
2018-12-17T06:12:47.538Z,0.48
2018-12-17T06:15:17.395Z,0.48
2018-12-17T06:17:47.241Z,0.49
2018-12-17T06:20:17.463Z,0.50
2018-12-17T06:22:47.385Z,0.51
2018-12-17T06:25:17.824Z,0.53
2018-12-17T06:27:56.890Z,0.54
2018-12-17T06:30:26.808Z,0.55
2018-12-17T06:35:39.420Z,0.55
2018-12-17T06:38:09.382Z,0.57
2018-12-17T06:40:39.514Z,0.55
2018-12-17T06:43:09.390Z,0.57
2018-12-17T06:45:39.655Z,0.58
2018-12-17T06:48:16.837Z,0.61
2018-12-17T06:50:42.701Z,0.61
2018-12-17T06:53:12.592Z,0.62
2018-12-17T06:55:42.906Z,0.64
2018-12-17T06:58:13.693Z,0.64
2018-12-17T07:00:43.484Z,0.64
2018-12-17T07:03:13.410Z,0.67
2018-12-17T07:05:43.232Z,0.67
2018-12-17T07:08:19.047Z,0.69
2018-12-17T07:10:49.611Z,0.69
2018-12-17T07:13:19.390Z,0.65
2018-12-17T07:15:49.258Z,0.58
2018-12-17T07:18:19.445Z,0.69
2018-12-17T07:20:49.257Z,0.69
2018-12-17T07:23:19.698Z,0.69
2018-12-17T07:25:49.419Z,0.72
2018-12-17T07:28:20.581Z,0.72
2018-12-17T07:30:50.341Z,0.75
2018-12-17T07:33:20.360Z,0.75
2018-12-17T07:35:50.561Z,0.76
2018-12-17T07:38:20.405Z,0.74
2018-12-17T07:40:50.654Z,0.74
2018-12-17T07:43:20.559Z,0.76
2018-12-17T07:45:50.440Z,0.78
2018-12-17T07:48:20.333Z,0.79
2018-12-17T07:50:50.144Z,0.81
2018-12-17T07:53:20.255Z,0.81
2018-12-17T07:55:50.419Z,0.87
2018-12-17T07:58:20.482Z,0.85
2018-12-17T08:00:51.133Z,0.87
2018-12-17T08:03:21.196Z,0.88
2018-12-17T08:05:51.263Z,0.88
2018-12-17T08:08:21.374Z,0.89
2018-12-17T08:10:51.365Z,0.92
2018-12-17T08:13:22.189Z,0.96
2018-12-17T08:15:52.217Z,0.94
2018-12-17T08:18:24.140Z,0.96
2018-12-17T08:20:54.165Z,0.96
2018-12-17T08:23:24.450Z,0.98
2018-12-17T08:25:54.228Z,1.00
2018-12-17T08:28:24.417Z,1.00
2018-12-17T08:30:54.192Z,1.00
2018-12-17T08:33:24.516Z,0.79
2018-12-17T08:35:54.708Z,0.99
2018-12-17T08:38:24.442Z,1.01
2018-12-17T08:40:54.224Z,1.01
2018-12-17T08:43:24.284Z,1.02
2018-12-17T08:45:54.421Z,1.05
2018-12-17T08:48:24.464Z,1.08
2018-12-17T08:50:54.499Z,1.10
2018-12-17T08:53:24.286Z,1.11
2018-12-17T08:55:54.403Z,1.10
2018-12-17T08:58:24.827Z,1.13
2018-12-17T09:00:54.847Z,1.13
2018-12-17T09:03:24.605Z,1.14
2018-12-17T09:05:54.488Z,1.17
2018-12-17T09:08:24.319Z,1.19
2018-12-17T09:10:54.233Z,1.20
2018-12-17T09:13:24.242Z,1.25
2018-12-17T09:15:54.040Z,1.26
2018-12-17T09:18:24.266Z,1.28
2018-12-17T09:20:54.469Z,1.32
2018-12-17T09:23:24.555Z,1.34
2018-12-17T09:25:54.409Z,1.39
2018-12-17T09:28:24.187Z,1.44
2018-12-17T09:30:54.495Z,1.48
2018-12-17T09:33:24.623Z,1.52
2018-12-17T09:35:54.660Z,1.54
2018-12-17T09:38:24.537Z,1.56
2018-12-17T09:40:54.303Z,1.57
2018-12-17T09:43:24.588Z,1.58
2018-12-17T09:45:54.580Z,1.62
2018-12-17T09:48:24.460Z,1.63
2018-12-17T09:50:54.420Z,1.64
2018-12-17T09:53:24.784Z,1.65
2018-12-17T09:55:55.094Z,1.64
2018-12-17T09:58:25.500Z,1.65
2018-12-17T10:00:55.373Z,1.68
2018-12-17T10:03:25.108Z,1.71
2018-12-17T10:05:55.067Z,1.74
2018-12-17T10:08:25.122Z,1.77
2018-12-17T10:10:55.181Z,1.75
2018-12-17T10:13:25.447Z,1.74
2018-12-17T10:15:56.441Z,1.77
2018-12-17T10:18:26.374Z,0.40
2018-12-17T10:20:56.155Z,1.82
2018-12-17T10:23:26.306Z,1.84
2018-12-17T10:25:56.163Z,1.87
2018-12-17T10:28:26.229Z,1.91
2018-12-17T10:30:56.375Z,1.96
2018-12-17T10:33:26.212Z,1.98
2018-12-17T10:35:56.306Z,1.96
2018-12-17T10:38:26.176Z,1.99
2018-12-17T10:40:56.365Z,2.03
2018-12-17T10:43:26.147Z,2.07
2018-12-17T10:45:56.295Z,2.08
2018-12-17T10:48:26.513Z,2.10
2018-12-17T10:50:56.285Z,2.13
2018-12-17T10:53:26.227Z,2.16
2018-12-17T10:55:56.373Z,2.18
2018-12-17T10:58:26.451Z,2.20
2018-12-17T11:01:01.577Z,2.22
2018-12-17T11:03:35.597Z,2.22
2018-12-17T11:08:55.886Z,2.22
2018-12-17T11:11:26.381Z,2.21
2018-12-17T11:13:56.853Z,2.24
2018-12-17T11:16:26.680Z,2.21
2018-12-17T11:18:56.447Z,2.24
2018-12-17T11:21:27.584Z,2.26
2018-12-17T11:23:57.352Z,2.28
2018-12-17T11:26:27.309Z,2.32
2018-12-17T11:28:57.344Z,2.34
2018-12-17T11:31:27.221Z,2.38
2018-12-17T11:33:57.458Z,2.40
2018-12-17T11:36:27.448Z,2.40
2018-12-17T11:38:57.327Z,2.44
2018-12-17T11:41:36.055Z,2.44
2018-12-17T11:44:06.362Z,2.46
2018-12-17T11:46:36.094Z,2.00
2018-12-17T11:49:06.149Z,2.48
2018-12-17T11:51:36.305Z,2.48
2018-12-17T11:54:06.519Z,2.11
2018-12-17T11:56:49.952Z,2.54
2018-12-17T11:59:20.069Z,2.59
2018-12-17T12:01:50.246Z,2.64
2018-12-17T12:04:20.319Z,2.66
2018-12-17T12:06:50.488Z,2.69
2018-12-17T12:09:24.503Z,2.69
2018-12-17T12:11:54.535Z,2.68
2018-12-17T12:14:24.742Z,2.68
2018-12-17T12:16:54.488Z,2.66
2018-12-17T12:19:24.605Z,2.64
2018-12-17T12:21:54.625Z,2.64
2018-12-17T12:24:25.208Z,2.61
2018-12-17T12:26:55.249Z,2.61
2018-12-17T12:29:25.363Z,2.61
2018-12-17T12:31:55.445Z,2.60
2018-12-17T12:34:25.203Z,2.55
2018-12-17T12:36:55.338Z,2.52
2018-12-17T12:39:25.154Z,2.52
2018-12-17T12:41:55.121Z,2.53
2018-12-17T12:44:25.712Z,2.58
2018-12-17T12:46:55.537Z,2.57
2018-12-17T12:49:25.423Z,2.58
2018-12-17T12:51:55.542Z,2.59
2018-12-17T12:54:25.460Z,2.57
2018-12-17T12:56:55.371Z,2.58
2018-12-17T12:59:25.251Z,2.59
2018-12-17T13:01:55.099Z,2.60
2018-12-17T13:04:25.854Z,2.60
2018-12-17T13:06:56.133Z,2.61
2018-12-17T13:09:26.362Z,2.57
2018-12-17T13:11:56.405Z,2.57
2018-12-17T13:14:31.056Z,2.56
2018-12-17T13:17:05.102Z,2.54
2018-12-17T13:19:35.311Z,2.54
2018-12-17T13:22:05.333Z,2.54
2018-12-17T13:24:35.147Z,1.25
2018-12-17T13:27:05.129Z,2.51
2018-12-17T13:29:35.198Z,2.51
2018-12-17T13:32:05.341Z,2.47
2018-12-17T13:34:35.481Z,2.44
2018-12-17T13:37:05.289Z,2.49
2018-12-17T13:39:35.947Z,2.47
2018-12-17T13:42:05.990Z,2.47
2018-12-17T13:44:36.104Z,2.45
2018-12-17T13:47:06.362Z,2.43
2018-12-17T13:49:36.206Z,2.45
2018-12-17T13:52:12.350Z,2.46
2018-12-17T13:54:42.606Z,2.48
2018-12-17T13:57:12.645Z,2.50
2018-12-17T13:59:42.967Z,2.54
2018-12-17T14:02:13.091Z,2.56
2018-12-17T14:04:43.289Z,2.58
2018-12-17T14:07:13.876Z,2.62
2018-12-17T14:12:37.410Z,2.63
2018-12-17T14:15:07.337Z,2.66
2018-12-17T14:17:40.095Z,2.66
2018-12-17T14:23:03.795Z,2.73
2018-12-17T14:25:33.749Z,2.71
2018-12-17T14:28:03.518Z,2.68
2018-12-17T14:30:33.425Z,2.70
2018-12-17T14:33:03.392Z,2.70
2018-12-17T14:35:33.625Z,2.75
2018-12-17T14:38:03.944Z,2.79
2018-12-17T14:40:34.008Z,2.76
2018-12-17T14:43:04.256Z,2.78
2018-12-17T14:45:34.431Z,2.75
2018-12-17T14:48:13.777Z,2.76
2018-12-17T14:50:43.597Z,2.78
2018-12-17T14:53:13.474Z,2.75
2018-12-17T14:55:43.432Z,4.72
2018-12-17T14:58:13.566Z,6.43
2018-12-17T15:00:43.513Z,5.47
2018-12-17T15:03:13.478Z,4.95
2018-12-17T15:05:43.442Z,4.62
2018-12-17T15:08:13.540Z,4.33
2018-12-17T15:10:43.469Z,4.09
2018-12-17T15:13:13.663Z,3.93
2018-12-17T15:15:43.432Z,3.78
2018-12-17T15:18:13.366Z,3.60
2018-12-17T15:20:43.448Z,3.52
2018-12-17T15:23:13.667Z,3.39
2018-12-17T15:25:43.767Z,3.26
2018-12-17T15:28:13.793Z,3.17
2018-12-17T15:30:43.818Z,3.11
2018-12-17T15:33:15.362Z,3.09
2018-12-17T15:35:48.105Z,3.09
2018-12-17T15:38:18.382Z,3.06
2018-12-17T15:40:48.348Z,3.03
2018-12-17T15:43:18.396Z,3.02
2018-12-17T15:45:48.538Z,2.97
2018-12-17T15:48:18.567Z,2.98
2018-12-17T15:50:49.900Z,2.98
2018-12-17T15:53:19.956Z,2.99
2018-12-17T15:55:50.112Z,3.01
2018-12-17T15:58:20.308Z,2.92
2018-12-17T16:00:50.378Z,2.87
2018-12-17T16:03:21.221Z,2.88
2018-12-17T16:05:51.334Z,2.90
2018-12-17T16:08:21.488Z,3.02
2018-12-17T16:10:52.394Z,2.94
2018-12-17T16:13:22.191Z,2.93
2018-12-17T16:15:52.426Z,2.86
2018-12-17T16:18:22.412Z,2.86
2018-12-17T16:20:52.798Z,2.87
2018-12-17T16:23:22.733Z,2.83
2018-12-17T16:25:53.575Z,2.81
2018-12-17T16:28:27.637Z,2.82
2018-12-17T16:30:58.255Z,2.82
2018-12-17T16:33:30.090Z,2.80
2018-12-17T16:36:00.607Z,2.84
2018-12-17T16:38:30.682Z,2.82
2018-12-17T16:41:00.673Z,2.82
2018-12-17T16:43:30.587Z,2.82
2018-12-17T16:46:00.523Z,2.87
2018-12-17T16:48:30.356Z,2.84
2018-12-17T16:51:00.422Z,2.87
2018-12-17T16:53:34.506Z,2.87
2018-12-17T16:56:04.507Z,2.83
2018-12-17T16:58:34.768Z,2.85
2018-12-17T17:01:05.158Z,2.80
2018-12-17T17:03:35.449Z,2.81
2018-12-17T17:06:05.732Z,2.85
2018-12-17T17:08:36.507Z,2.87
2018-12-17T17:11:06.892Z,2.85
2018-12-17T17:13:37.153Z,2.83
2018-12-17T17:16:07.348Z,2.85
2018-12-17T17:18:37.517Z,2.86
2018-12-17T17:21:07.615Z,2.87
2018-12-17T17:23:37.760Z,2.86
2018-12-17T17:26:07.583Z,2.88
2018-12-17T17:28:37.526Z,2.89
2018-12-17T17:31:08.340Z,2.89
2018-12-17T17:33:38.863Z,2.89
2018-12-17T17:36:09.738Z,2.86
2018-12-17T17:38:39.826Z,2.85
2018-12-17T17:41:09.722Z,2.85
2018-12-17T17:43:39.578Z,2.84
2018-12-17T17:46:09.526Z,2.87
2018-12-17T17:48:39.535Z,2.86
2018-12-17T17:51:09.606Z,2.85
2018-12-17T17:53:39.540Z,2.80
2018-12-17T17:56:09.592Z,2.81
2018-12-17T17:58:39.874Z,2.82
2018-12-17T18:01:09.937Z,2.83
2018-12-17T18:03:40.556Z,2.85
2018-12-17T18:06:16.230Z,2.84
2018-12-17T18:08:42.314Z,2.83
2018-12-17T18:11:12.258Z,2.81
2018-12-17T18:13:42.326Z,2.84
2018-12-17T18:16:12.273Z,2.86
2018-12-17T18:18:42.308Z,2.84
2018-12-17T18:21:12.645Z,2.88
2018-12-17T18:23:42.699Z,2.84
2018-12-17T18:26:12.578Z,2.95
2018-12-17T18:28:42.443Z,3.04
2018-12-17T18:31:12.473Z,3.00
2018-12-17T18:33:42.593Z,2.97
2018-12-17T18:36:12.516Z,2.92
2018-12-17T18:38:42.416Z,2.91
2018-12-17T18:41:12.537Z,2.84
2018-12-17T18:43:42.401Z,2.88
2018-12-17T18:46:12.322Z,2.84
2018-12-17T18:48:42.285Z,2.87
2018-12-17T18:51:12.668Z,2.80
2018-12-17T18:56:31.000Z,2.80
2018-12-17T18:59:01.226Z,2.79
2018-12-17T19:01:31.107Z,2.79
2018-12-17T19:04:01.317Z,2.81
2018-12-17T19:06:31.668Z,2.79
2018-12-17T19:09:01.456Z,2.78
2018-12-17T19:11:31.452Z,2.78
2018-12-17T19:14:01.621Z,2.84
2018-12-17T19:16:32.294Z,2.80
2018-12-17T19:19:02.676Z,2.79
2018-12-17T19:21:32.600Z,2.78
2018-12-17T19:24:02.440Z,2.76
2018-12-17T19:26:32.802Z,2.74
2018-12-17T19:29:04.093Z,2.77
2018-12-17T19:31:34.599Z,2.72
2018-12-17T19:34:05.119Z,2.71
2018-12-17T19:36:35.404Z,2.71
2018-12-17T19:39:08.191Z,2.73
2018-12-17T19:41:38.585Z,2.71
2018-12-17T19:44:08.364Z,2.72
2018-12-17T19:46:38.640Z,2.74
2018-12-17T19:49:08.487Z,2.77
2018-12-17T19:51:38.436Z,2.75
2018-12-17T19:54:08.411Z,2.78
2018-12-17T19:56:38.535Z,2.84
2018-12-17T19:59:08.368Z,2.94
2018-12-17T20:01:38.444Z,3.00
2018-12-17T20:04:08.348Z,2.95
2018-12-17T20:06:38.394Z,2.88
2018-12-17T20:09:09.151Z,2.79
2018-12-17T20:11:39.213Z,2.75
2018-12-17T20:14:09.324Z,2.77
2018-12-17T20:16:39.464Z,2.77
2018-12-17T20:19:09.305Z,2.38
2018-12-17T20:21:39.142Z,2.77
2018-12-17T20:24:09.364Z,2.77
2018-12-17T20:26:39.162Z,2.76
2018-12-17T20:29:09.474Z,2.76
2018-12-17T20:31:39.568Z,2.76
2018-12-17T20:34:09.767Z,2.76
2018-12-17T20:36:39.593Z,2.76
2018-12-17T20:39:10.049Z,2.78
2018-12-17T20:41:40.551Z,2.75
2018-12-17T20:44:10.569Z,2.76
2018-12-17T20:46:40.523Z,4.01
2018-12-17T20:49:10.987Z,4.10
2018-12-17T20:51:41.678Z,3.94
2018-12-17T20:54:11.621Z,3.75
2018-12-17T20:56:41.775Z,3.64
2018-12-17T20:59:11.845Z,3.46
2018-12-17T21:01:41.723Z,3.39
2018-12-17T21:04:11.893Z,3.33
2018-12-17T21:06:42.145Z,3.41
2018-12-17T21:09:13.741Z,3.45
2018-12-17T21:11:43.998Z,3.41
2018-12-17T21:14:14.068Z,3.38
2018-12-17T21:16:44.317Z,3.33
2018-12-17T21:19:14.545Z,3.18
2018-12-17T21:21:44.872Z,3.25
2018-12-17T21:24:15.379Z,3.25
2018-12-17T21:26:45.885Z,3.22
2018-12-17T21:29:16.098Z,3.20
2018-12-17T21:31:46.465Z,3.24
2018-12-17T21:34:16.569Z,3.21
2018-12-17T21:36:46.596Z,3.20
2018-12-17T21:39:16.531Z,3.17
2018-12-17T21:41:46.481Z,3.17
2018-12-17T21:44:16.320Z,3.13
2018-12-17T21:46:46.396Z,3.13
2018-12-17T21:49:16.161Z,3.09
2018-12-17T21:51:46.456Z,3.06
2018-12-17T21:54:16.848Z,3.04
2018-12-17T21:56:50.847Z,3.02
2018-12-17T21:59:21.613Z,3.01
2018-12-17T22:01:53.634Z,3.02
2018-12-17T22:04:24.653Z,2.98
2018-12-17T22:06:54.605Z,2.98
2018-12-17T22:09:24.462Z,2.99
2018-12-17T22:11:54.388Z,2.99
2018-12-17T22:14:24.271Z,2.98
2018-12-17T22:16:54.099Z,2.99
2018-12-17T22:19:24.526Z,2.99
2018-12-17T22:21:54.524Z,3.01
2018-12-17T22:24:24.495Z,3.01
2018-12-17T22:26:54.582Z,3.00
2018-12-17T22:29:24.454Z,3.06
2018-12-17T22:31:54.572Z,3.03
2018-12-17T22:34:24.604Z,2.99
2018-12-17T22:36:54.730Z,2.97
2018-12-17T22:39:24.597Z,2.97
2018-12-17T22:41:54.642Z,2.96
2018-12-17T22:44:24.936Z,2.97
2018-12-17T22:46:54.829Z,2.97
2018-12-17T22:49:24.766Z,2.97
2018-12-17T22:51:55.122Z,2.96
2018-12-17T22:54:34.436Z,2.92
2018-12-17T22:57:04.562Z,3.00
2018-12-17T22:59:35.604Z,2.99
2018-12-17T23:02:05.805Z,3.00
2018-12-17T23:04:35.709Z,2.99
2018-12-17T23:07:05.643Z,2.98
2018-12-17T23:09:45.952Z,2.97
2018-12-17T23:12:26.653Z,2.98
2018-12-17T23:15:07.091Z,2.94
2018-12-17T23:17:41.546Z,2.96
2018-12-17T23:20:11.905Z,2.96
2018-12-17T23:22:44.928Z,2.98
2018-12-17T23:25:15.366Z,2.97
2018-12-17T23:27:50.687Z,2.99
2018-12-17T23:30:23.191Z,2.97
2018-12-17T23:32:53.350Z,2.98
2018-12-17T23:35:23.486Z,2.98
2018-12-17T23:37:53.548Z,2.97
2018-12-17T23:40:23.843Z,2.94
2018-12-17T23:42:53.677Z,2.93
2018-12-17T23:45:23.572Z,2.96
2018-12-17T23:47:53.566Z,2.94
2018-12-17T23:50:23.500Z,3.09
2018-12-17T23:52:53.578Z,2.99
2018-12-17T23:55:23.466Z,2.93
2018-12-17T23:57:53.212Z,2.95
